Time;durP1;ratioP1;P1;durP2;ratioP2;P2;SDS_P1;SDS_P2;PMS_P1;PMS_P2;Temp;Humidity;BMP_temperature;BMP_pressure;BME280_temperature;BME280_humidity;BME280_pressure;Samples;Min_cycle;Max_cycle;Signal;HPM_P1;HPM_P2
2022/02/09 00:03:58;;;;;;;5.28;2.30;;;;;;;8.69;90.14;102689.22;5054504;28;20485;-36
2022/02/09 00:06:40;;;;;;;3.90;2.22;;;;;;;8.69;90.86;102696.47;5053004;28;20167;-36
2022/02/09 00:09:06;;;;;;;4.57;2.50;;;;;;;8.68;90.80;102687.50;5054223;28;20034;-36
2022/02/09 00:11:40;;;;;;;3.97;2.57;;;;;;;8.66;91.01;102700.34;5054471;28;20029;-36
2022/02/09 00:14:17;;;;;;;4.93;2.63;;;;;;;8.55;91.86;102681.00;5053941;28;20021;-35
2022/02/09 00:19:28;;;;;;;4.93;2.35;;;;;;;8.58;92.76;102691.44;5054210;28;20037;-35
2022/02/09 00:24:49;;;;;;;5.25;2.95;;;;;;;8.48;95.25;102678.16;5054043;28;20211;-35
2022/02/09 01:57:16;;;;;;;2.95;1.60;;;;;;;8.30;99.55;102654.09;5030911;28;20044;-35
2022/02/09 01:59:44;;;;;;;2.13;1.60;;;;;;;8.29;99.03;102638.91;5030762;28;20061;-35
2022/02/09 02:02:09;;;;;;;3.10;1.60;;;;;;;8.33;99.00;102634.00;5030472;28;20041;-35
2022/02/09 02:04:35;;;;;;;2.75;1.67;;;;;;;8.26;98.99;102623.94;5030351;28;20544;-35
2022/02/09 02:07:05;;;;;;;2.53;1.80;;;;;;;8.18;99.05;102615.84;5030302;28;20053;-35
2022/02/09 02:09:34;;;;;;;2.22;1.70;;;;;;;8.33;98.80;102637.53;5030955;28;20033;-35
2022/02/09 02:12:09;;;;;;;2.53;1.50;;;;;;;8.32;98.85;102632.34;5030188;28;20179;-35
2022/02/09 02:14:46;;;;;;;2.42;1.40;;;;;;;8.24;98.80;102623.25;5030843;28;20140;-35
2022/02/09 02:17:23;;;;;;;;;;;;;;;8.36;98.98;102636.38;5030835;28;20092;-35
2022/02/09 02:19:55;;;;;;;2.50;1.60;;;;;;;8.33;98.95;102640.25;5037090;28;19912;-35
2022/02/09 02:28:12;;;;;;;2.58;1.52;;;;;;;8.25;98.25;102616.03;5052792;28;20385;-36
2022/02/09 02:33:22;;;;;;;3.00;1.90;;;;;;;8.33;98.89;102620.53;5055182;28;20044;-36
2022/02/09 02:44:18;;;;;;;4.22;2.88;;;;;;;8.38;99.02;102620.88;5055663;28;20047;-35
2022/02/09 02:57:54;;;;;;;5.90;3.63;;;;;;;8.31;100.00;102617.19;5055365;28;20044;-35
2022/02/09 03:13:38;;;;;;;4.87;4.30;;;;;;;8.12;100.00;102584.22;5055478;28;20037;-35
2022/02/09 03:16:12;;;;;;;4.32;3.92;;;;;;;8.12;100.00;102586.06;5055066;28;20021;-35
2022/02/09 03:19:13;;;;;;;4.75;4.30;;;;;;;8.10;100.00;102586.25;5055513;28;20057;-35
2022/02/09 03:24:29;;;;;;;4.75;4.35;;;;;;;8.00;100.00;102590.97;5055024;28;20116;-35
2022/02/09 03:27:18;;;;;;;5.95;4.93;;;;;;;7.97;100.00;102589.47;5055190;28;20122;-35
2022/02/09 03:46:13;;;;;;;7.20;6.22;;;;;;;7.86;100.00;102570.97;5054350;28;20033;-35
2022/02/09 03:58:44;;;;;;;6.00;5.50;;;;;;;7.90;100.00;102569.59;5054034;28;20043;-35
2022/02/09 04:01:10;;;;;;;6.10;5.60;;;;;;;7.84;100.00;102562.19;5054438;28;20124;-35
2022/02/09 04:03:35;;;;;;;6.27;5.00;;;;;;;7.91;100.00;102567.78;5053904;28;20087;-35
2022/02/09 04:06:01;;;;;;;5.33;4.73;;;;;;;7.89;100.00;102565.22;5053942;28;20025;-35
2022/02/09 04:08:29;;;;;;;5.30;4.90;;;;;;;7.87;100.00;102564.56;5054014;28;20049;-35
2022/02/09 04:11:10;;;;;;;5.38;4.88;;;;;;;7.87;100.00;102572.66;5054872;28;20029;-35
2022/02/09 04:13:56;;;;;;;5.60;5.00;;;;;;;7.72;100.00;102553.66;5054360;28;20036;-36
2022/02/09 04:16:38;;;;;;;5.80;5.05;;;;;;;7.80;100.00;102568.09;5054165;28;20037;-36
2022/02/09 04:46:17;;;;;;;6.38;5.10;;;;;;;7.73;100.00;102567.94;5053436;28;20033;-36
2022/02/09 04:59:15;;;;;;;5.00;4.25;;;;;;;7.65;100.00;102541.03;5053460;28;20132;-36
2022/02/09 05:23:42;;;;;;;3.38;2.70;;;;;;;7.61;100.00;102555.84;5053041;28;20037;-36
2022/02/09 05:28:41;;;;;;;4.10;2.85;;;;;;;7.63;100.00;102564.59;5053200;28;20029;-36
2022/02/09 05:31:08;;;;;;;6.07;2.97;;;;;;;7.55;100.00;102553.81;5052094;28;20028;-36
2022/02/09 05:33:34;;;;;;;3.22;2.17;;;;;;;7.60;100.00;102562.22;5053449;28;20029;-35
2022/02/09 05:36:00;;;;;;;2.40;2.10;;;;;;;7.57;100.00;102563.44;5053082;28;20393;-35
2022/02/09 05:38:25;;;;;;;3.15;2.45;;;;;;;7.54;100.00;102558.38;5053033;28;20021;-35
2022/02/09 05:40:50;;;;;;;2.47;2.23;;;;;;;7.51;100.00;102547.94;5052943;28;20484;-35
2022/02/09 05:43:16;;;;;;;4.33;2.20;;;;;;;7.54;100.00;102549.47;5052787;28;20451;-35
2022/02/09 05:59:16;;;;;;;2.22;1.63;;;;;;;7.53;100.00;102548.63;5052697;28;20044;-36
2022/02/09 06:01:43;;;;;;;2.35;2.10;;;;;;;7.51;100.00;102536.31;5052515;28;20116;-36
2022/02/09 06:04:08;;;;;;;3.38;1.95;;;;;;;7.50;100.00;102540.88;5052613;28;20021;-36
2022/02/09 06:06:34;;;;;;;7.73;2.40;;;;;;;7.37;100.00;102530.63;5056533;28;20132;-36
2022/02/09 06:09:01;;;;;;;2.63;2.10;;;;;;;7.46;100.00;102544.91;5056077;28;20032;-36
2022/02/09 06:22:03;;;;;;;3.88;2.47;;;;;;;7.37;100.00;102548.59;5056392;28;20083;-36
2022/02/09 06:24:29;;;;;;;4.25;2.28;;;;;;;7.42;100.00;102557.88;5055839;28;20025;-36
2022/02/09 06:26:55;;;;;;;5.25;2.70;;;;;;;7.41;100.00;102555.34;5055968;28;20499;-36
2022/02/09 06:29:20;;;;;;;4.10;2.90;;;;;;;7.42;100.00;102562.44;5056190;28;20377;-36
2022/02/09 06:31:47;;;;;;;3.07;2.77;;;;;;;7.41;100.00;102558.03;5056071;28;20489;-36
2022/02/09 06:34:14;;;;;;;3.83;2.70;;;;;;;7.40;100.00;102567.13;5055916;28;20115;-35
2022/02/09 06:36:44;;;;;;;4.05;3.20;;;;;;;7.39;100.00;102563.59;5054534;28;20032;-34
2022/02/09 06:39:11;;;;;;;4.25;3.13;;;;;;;7.28;100.00;102539.72;5056104;28;20402;-35
2022/02/09 06:41:37;;;;;;;3.72;3.15;;;;;;;7.30;100.00;102550.31;5054534;28;20029;-36
2022/02/09 06:44:03;;;;;;;3.65;3.13;;;;;;;7.28;100.00;102547.78;5055058;28;20468;-36
2022/02/09 06:46:35;;;;;;;5.32;3.50;;;;;;;7.33;100.00;102563.44;5056506;28;20032;-36
2022/02/09 06:49:05;;;;;;;5.03;3.88;;;;;;;7.32;100.00;102567.97;5056233;28;20389;-36
2022/02/09 06:51:37;;;;;;;4.60;3.33;;;;;;;7.33;100.00;102569.66;5056050;28;20052;-35
2022/02/09 06:54:12;;;;;;;4.63;3.80;;;;;;;7.20;100.00;102539.69;5055552;28;20040;-35
2022/02/09 06:57:04;;;;;;;4.35;3.80;;;;;;;7.23;100.00;102555.53;5055476;28;20481;-35
2022/02/09 06:59:34;;;;;;;5.53;4.15;;;;;;;7.22;100.00;102545.75;5055666;28;20037;-35
2022/02/09 07:02:05;;;;;;;7.80;5.00;;;;;;;7.29;100.00;102560.22;5056028;28;20025;-35
2022/02/09 07:04:35;;;;;;;6.88;5.80;;;;;;;7.14;100.00;102529.63;5054993;28;20037;-35
2022/02/09 07:07:01;;;;;;;5.93;5.03;;;;;;;7.32;100.00;102557.22;5055944;28;20066;-35
2022/02/09 07:09:27;;;;;;;5.88;5.28;;;;;;;7.31;100.00;102555.50;5055780;28;20068;-35
2022/02/09 07:11:53;;;;;;;6.07;5.38;;;;;;;7.35;100.00;102561.41;5055287;28;20032;-35
2022/02/09 07:14:24;;;;;;;7.20;5.80;;;;;;;7.27;100.00;102554.19;5055835;28;20025;-35
2022/02/09 07:16:49;;;;;;;8.50;6.88;;;;;;;7.32;100.00;102559.03;5054964;28;20107;-35
2022/02/09 07:19:15;;;;;;;9.20;6.15;;;;;;;7.36;100.00;102571.16;5055156;28;20155;-35
2022/02/09 07:21:41;;;;;;;8.98;7.28;;;;;;;7.33;100.00;102548.13;5054618;28;20129;-35
2022/02/09 07:24:11;;;;;;;8.45;7.30;;;;;;;7.33;100.00;102544.59;5054614;28;20029;-35
2022/02/09 07:29:13;;;;;;;7.82;7.03;;;;;;;7.35;100.00;102545.25;5055207;28;20048;-35
2022/02/09 07:31:38;;;;;;;8.70;7.45;;;;;;;7.34;100.00;102544.41;5053656;28;20037;-35
2022/02/09 07:34:04;;;;;;;8.60;7.20;;;;;;;7.36;100.00;102549.63;5055230;28;20131;-35
2022/02/09 07:36:35;;;;;;;9.00;7.22;;;;;;;7.29;100.00;102533.31;5055048;28;20252;-35
2022/02/09 07:39:03;;;;;;;8.00;7.20;;;;;;;7.11;100.00;102503.88;5054979;28;20036;-35
2022/02/09 07:41:29;;;;;;;10.57;7.78;;;;;;;7.22;100.00;102522.41;5054551;28;20029;-35
2022/02/09 07:56:23;;;;;;;7.75;6.35;;;;;;;7.43;100.00;102548.78;5054583;28;20044;-35
2022/02/09 07:58:48;;;;;;;8.15;7.30;;;;;;;7.41;100.00;102531.94;5054283;28;20435;-35
2022/02/09 08:01:14;;;;;;;7.00;6.20;;;;;;;7.51;100.00;102541.72;5054323;28;20025;-35
2022/02/09 08:03:41;;;;;;;7.25;6.55;;;;;;;7.53;100.00;102543.25;5054847;28;20025;-35
2022/02/09 08:06:07;;;;;;;6.95;6.25;;;;;;;7.55;100.00;102537.69;5054530;28;20428;-44
2022/02/09 08:08:34;;;;;;;7.03;6.32;;;;;;;7.51;100.00;102528.25;5053941;28;20037;-35
2022/02/09 08:11:20;;;;;;;8.32;6.18;;;;;;;7.60;100.00;102533.47;5054876;28;20076;-35
2022/02/09 08:30:08;;;;;;;8.73;6.30;;;;;;;7.74;100.00;102535.47;5052825;28;20385;-35
2022/02/09 08:32:41;;;;;;;9.88;6.53;;;;;;;7.74;100.00;102529.22;5053771;28;20025;-35
2022/02/09 08:35:07;;;;;;;7.55;6.07;;;;;;;7.66;100.00;102527.41;5053489;28;20078;-35
2022/02/09 08:37:33;;;;;;;8.05;6.70;;;;;;;7.72;100.00;102544.72;5053446;28;20028;-35
2022/02/09 08:39:58;;;;;;;7.05;6.05;;;;;;;7.66;100.00;102540.00;5053733;28;20025;-35
2022/02/09 08:42:24;;;;;;;7.70;6.50;;;;;;;7.67;100.00;102549.78;5053990;28;20025;-36
2022/02/09 08:44:50;;;;;;;9.45;6.85;;;;;;;7.68;100.00;102538.00;5053469;28;20040;-36
2022/02/09 08:47:16;;;;;;;7.95;6.43;;;;;;;7.74;100.00;102545.38;5053611;28;20453;-36
2022/02/09 08:49:41;;;;;;;8.77;7.30;;;;;;;7.70;100.00;102534.13;5053837;28;20053;-37
2022/02/09 08:52:07;;;;;;;8.57;6.33;;;;;;;7.77;100.00;102545.06;5053021;28;20387;-36
2022/02/09 08:54:32;;;;;;;7.95;7.00;;;;;;;7.55;100.00;102511.59;5053548;28;20040;-36
2022/02/09 08:57:02;;;;;;;7.63;6.40;;;;;;;7.80;100.00;102541.16;5053420;28;20045;-36
2022/02/09 08:59:29;;;;;;;7.82;6.43;;;;;;;7.83;100.00;102541.69;5051766;28;20048;-36
2022/02/09 09:02:02;;;;;;;6.93;6.20;;;;;;;7.83;100.00;102528.22;5053139;28;20040;-36
2022/02/09 09:04:33;;;;;;;7.82;6.07;;;;;;;7.83;100.00;102522.81;5053590;28;20043;-36
2022/02/09 09:07:04;;;;;;;8.30;6.13;;;;;;;7.84;100.00;102516.41;5053458;28;20507;-36
2022/02/09 09:09:45;;;;;;;8.32;6.05;;;;;;;7.87;100.00;102528.72;5053416;28;20110;-36
2022/02/09 09:40:15;;;;;;;6.60;5.57;;;;;;;7.95;100.00;102518.78;5051628;28;20056;-36
2022/02/09 10:02:05;;;;;;;5.80;5.07;;;;;;;8.11;99.85;102538.59;5054177;28;20059;-36
2022/02/09 10:33:02;;;;;;;5.68;4.53;;;;;;;8.35;96.49;102551.97;5056072;28;20044;-35
2022/02/09 10:35:33;;;;;;;4.60;4.07;;;;;;;8.35;97.25;102556.53;5055967;28;20062;-35
2022/02/09 10:38:17;;;;;;;5.65;4.43;;;;;;;8.30;97.31;102551.66;5056144;28;20151;-36
2022/02/09 10:40:47;;;;;;;5.95;4.57;;;;;;;8.29;98.28;102558.03;5056478;28;20022;-35
2022/02/09 10:43:21;;;;;;;5.85;4.45;;;;;;;8.26;99.93;102567.31;5055761;28;20070;-35
2022/02/09 10:45:50;;;;;;;4.70;4.20;;;;;;;8.22;100.00;102571.38;5056688;28;20425;-35
2022/02/09 10:48:44;;;;;;;5.32;4.45;;;;;;;8.18;100.00;102566.50;5055731;28;20051;-35
2022/02/09 10:51:23;;;;;;;7.97;5.07;;;;;;;8.12;100.00;102570.75;5055092;28;20168;-36
2022/02/09 10:54:04;;;;;;;6.13;4.70;;;;;;;8.13;100.00;102571.56;5056443;28;20115;-35
2022/02/09 10:56:33;;;;;;;6.32;4.53;;;;;;;8.13;100.00;102569.72;5055489;28;20029;-35
2022/02/09 10:59:00;;;;;;;5.07;4.22;;;;;;;8.06;100.00;102560.66;5055432;28;20039;-35
2022/02/09 11:01:26;;;;;;;6.53;4.93;;;;;;;8.09;100.00;102551.38;5055129;28;20036;-35
2022/02/09 11:03:55;;;;;;;7.13;4.75;;;;;;;8.19;100.00;102563.63;5055079;28;20523;-35
2022/02/09 11:06:22;;;;;;;6.43;5.13;;;;;;;8.15;100.00;102564.16;5055618;28;20037;-35
2022/02/09 11:08:47;;;;;;;7.25;4.93;;;;;;;8.14;100.00;102563.31;5055382;28;20465;-35
2022/02/09 11:11:14;;;;;;;6.60;4.60;;;;;;;8.09;100.00;102551.38;5055702;28;20041;-35
2022/02/09 11:13:41;;;;;;;10.18;5.13;;;;;;;8.15;100.00;102559.63;5055065;28;20033;-36
2022/02/09 11:16:08;;;;;;;6.35;4.82;;;;;;;8.20;100.00;102561.81;5055126;28;20040;-36
2022/02/09 11:18:35;;;;;;;;;;;;;;;8.31;100.00;102560.56;5055445;28;20362;-35
2022/02/09 11:21:03;;;;;;;6.38;5.18;;;;;;;8.32;100.00;102555.00;5055173;28;19965;-35
2022/02/09 11:23:53;;;;;;;6.72;4.85;;;;;;;8.36;100.00;102552.81;5055444;28;20421;-35
2022/02/09 11:29:32;;;;;;;7.38;5.13;;;;;;;8.40;100.00;102546.09;5054917;28;20037;-35
2022/02/09 11:34:55;;;;;;;6.40;5.10;;;;;;;8.55;100.00;102548.88;5054736;28;20040;-35
2022/02/09 11:37:30;;;;;;;7.85;5.63;;;;;;;8.60;100.00;102544.63;5055156;28;20029;-36
2022/02/09 11:39:59;;;;;;;8.25;5.68;;;;;;;8.69;99.63;102553.53;5054822;28;20476;-35
2022/02/09 11:42:37;;;;;;;9.77;5.10;;;;;;;8.68;99.49;102528.41;5055390;28;20028;-35
2022/02/09 11:45:30;;;;;;;6.72;5.88;;;;;;;8.69;97.97;102523.88;5054547;28;20032;-35
2022/02/09 11:48:23;;;;;;;7.72;5.57;;;;;;;8.90;97.76;102548.34;5055036;28;20029;-36
2022/02/09 12:11:14;;;;;;;5.80;5.20;;;;;;;9.07;97.26;102513.13;5052342;28;20044;-35
2022/02/09 12:19:03;;;;;;;7.13;5.60;;;;;;;9.13;96.89;102509.75;5051811;28;20115;-36
2022/02/09 12:24:24;;;;;;;5.60;4.82;;;;;;;9.23;96.86;102510.31;5051511;28;20040;-36
2022/02/09 12:26:56;;;;;;;5.38;4.72;;;;;;;9.19;96.97;102503.59;5051743;28;20382;-36
2022/02/09 12:29:22;;;;;;;5.05;4.47;;;;;;;9.21;96.12;102509.66;5051766;28;20029;-35
2022/02/09 12:31:48;;;;;;;8.20;6.05;;;;;;;9.18;96.11;102512.72;5052027;28;20463;-36
2022/02/09 12:34:33;;;;;;;8.47;6.07;;;;;;;9.20;96.96;102507.97;5035249;28;20037;-35
2022/02/09 12:37:11;;;;;;;8.13;4.97;;;;;;;9.17;96.14;102497.53;5051682;28;20359;-35
2022/02/09 12:40:04;;;;;;;6.60;4.90;;;;;;;9.18;95.66;102485.75;5052623;28;20402;-35
2022/02/09 12:42:32;;;;;;;5.90;4.93;;;;;;;9.25;95.60;102492.91;5053191;28;20475;-35
2022/02/09 12:44:59;;;;;;;6.63;5.35;;;;;;;9.30;95.97;102492.38;5054390;28;20024;-35
2022/02/09 12:47:56;;;;;;;6.18;4.97;;;;;;;9.33;95.48;102494.72;5053672;28;20295;-35
2022/02/09 12:50:24;;;;;;;;;;;;;;;9.35;95.08;102492.66;5053220;28;20041;-35
2022/02/09 12:52:50;;;;;;;;;;;;;;;9.32;94.37;102484.06;5054021;28;19920;-35
2022/02/09 12:55:27;;;;;;;7.15;5.80;;;;;;;9.24;94.34;102490.41;5053278;28;19913;-36
2022/02/09 12:58:00;;;;;;;7.10;5.15;;;;;;;9.24;95.03;102490.41;5053868;28;20541;-36
2022/02/09 13:00:29;;;;;;;8.63;5.18;;;;;;;9.23;95.16;102484.16;5053443;28;20178;-36
2022/02/09 13:03:02;;;;;;;8.07;5.68;;;;;;;9.26;95.14;102482.94;5053259;28;20035;-36
2022/02/09 13:05:28;;;;;;;6.82;5.40;;;;;;;9.28;95.45;102481.75;5053332;28;20025;-36
2022/02/09 13:07:58;;;;;;;;;;;;;;;9.34;95.28;102485.59;5035596;28;20124;-36
2022/02/09 13:10:35;;;;;;;6.60;5.43;;;;;;;9.27;95.06;102481.94;5053276;28;19908;-36
2022/02/09 13:13:19;;;;;;;7.60;5.55;;;;;;;9.22;95.09;102473.53;5053717;28;20044;-35
2022/02/09 13:15:49;;;;;;;8.18;6.18;;;;;;;9.13;94.63;102455.75;5052994;28;20039;-35
2022/02/09 14:03:32;;;;;;;7.53;5.00;;;;;;;9.26;92.23;102447.84;5052628;28;20393;-36
2022/02/09 14:14:05;;;;;;;5.18;4.45;;;;;;;9.22;93.27;102452.81;5053260;28;20037;-36
2022/02/09 14:53:47;;;;;;;8.38;5.28;;;;;;;9.19;92.61;102453.16;5033739;28;20307;-36
2022/02/09 14:56:21;;;;;;;7.18;5.65;;;;;;;9.20;92.39;102456.69;5034052;28;20067;-36
2022/02/09 14:58:54;;;;;;;6.63;5.13;;;;;;;9.17;91.97;102444.38;5033478;28;20044;-36
2022/02/09 15:01:29;;;;;;;6.15;5.22;;;;;;;9.20;92.94;102448.59;5033389;28;20033;-36
2022/02/09 15:22:33;;;;;;;7.40;5.95;;;;;;;9.14;93.20;102454.72;4916837;29;20051;-36
2022/02/09 15:24:59;;;;;;;6.80;5.85;;;;;;;9.09;92.79;102446.34;4905999;29;20413;-36
2022/02/09 15:27:24;;;;;;;9.13;6.10;;;;;;;9.17;93.30;102462.44;4935471;29;20057;-36
2022/02/09 15:29:51;;;;;;;6.88;6.18;;;;;;;9.11;93.44;102439.72;4936025;29;20267;-36
2022/02/09 15:34:56;;;;;;;8.60;7.20;;;;;;;9.20;92.67;102444.03;4935630;29;20397;-36
2022/02/09 15:37:49;;;;;;;9.20;7.47;;;;;;;9.13;92.64;102435.00;4921240;29;20040;-36
2022/02/09 15:40:21;;;;;;;9.02;6.63;;;;;;;9.22;92.74;102446.53;4934774;29;20039;-36
2022/02/09 15:43:02;;;;;;;8.32;7.45;;;;;;;9.21;93.02;102443.00;4935557;29;20027;-36
2022/02/09 16:09:30;;;;;;;9.15;8.25;;;;;;;9.20;93.13;102440.50;5012418;28;20033;-36
2022/02/09 16:20:58;;;;;;;9.05;8.15;;;;;;;9.15;93.90;102426.72;5012848;28;20037;-36
2022/02/09 16:23:10;;;;;;;10.60;8.30;;;;;;;9.14;93.50;102430.44;5012038;28;20030;-36
2022/02/09 16:44:39;;;;;;;10.05;9.05;;;;;;;9.06;94.15;102414.31;5053635;28;20067;-36
2022/02/09 16:47:19;;;;;;;10.52;8.73;;;;;;;8.97;94.42;102411.69;5053796;28;20419;-36
2022/02/09 16:49:55;;;;;;;11.38;9.55;;;;;;;8.98;94.23;102410.69;5053507;28;20036;-36
2022/02/09 16:52:59;;;;;;;11.20;8.73;;;;;;;8.96;94.09;102411.88;5053720;28;20384;-36
2022/02/09 16:55:52;;;;;;;11.05;8.88;;;;;;;8.99;93.76;102416.91;5053115;28;20033;-36
2022/02/09 17:19:43;;;;;;;14.23;12.75;;;;;;;8.94;95.34;102428.25;5051510;28;20402;-35
2022/02/09 17:22:08;;;;;;;13.13;11.82;;;;;;;8.89;95.30;102416.34;5051116;28;20029;-35
2022/02/09 17:24:34;;;;;;;11.13;10.02;;;;;;;8.93;94.86;102423.00;5050873;28;20137;-35
2022/02/09 17:27:00;;;;;;;12.50;9.77;;;;;;;8.83;94.40;102409.78;5051081;28;20032;-35
2022/02/09 17:29:46;;;;;;;10.50;9.30;;;;;;;8.91;94.36;102425.91;5051314;28;20425;-35
2022/02/09 17:32:21;;;;;;;9.27;8.32;;;;;;;8.84;94.55;102407.94;5050641;28;20037;-35
2022/02/09 17:35:01;;;;;;;11.60;8.80;;;;;;;8.85;94.23;102415.84;5050527;28;20048;-35
2022/02/09 17:53:32;;;;;;;10.65;8.98;;;;;;;8.89;94.35;102417.16;5052821;28;20126;-35
2022/02/09 17:56:13;;;;;;;11.05;9.40;;;;;;;8.75;93.50;102399.91;5052689;28;20071;-35
2022/02/09 17:58:45;;;;;;;11.00;9.73;;;;;;;8.86;94.31;102412.13;5052976;28;20032;-35
2022/02/09 18:01:11;;;;;;;11.50;10.30;;;;;;;8.85;94.42;102409.63;5054585;28;20053;-35
2022/02/09 18:03:36;;;;;;;12.77;9.80;;;;;;;8.87;94.26;102408.41;5056812;28;20061;-35
2022/02/09 18:11:38;;;;;;;11.73;10.52;;;;;;;8.81;95.71;102406.44;5056397;28;20409;-35
2022/02/09 18:14:21;;;;;;;12.95;11.52;;;;;;;8.81;95.08;102397.50;5057066;28;20075;-35
2022/02/09 18:33:09;;;;;;;14.57;13.03;;;;;;;8.74;95.68;102383.91;5056101;28;20029;-35
2022/02/09 18:43:24;;;;;;;16.47;14.80;;;;;;;8.69;95.83;102378.22;5055870;28;20130;-35
2022/02/09 18:46:05;;;;;;;15.90;14.30;;;;;;;8.67;96.17;102378.38;5055800;28;20025;-35
2022/02/09 19:02:01;;;;;;;19.35;15.85;;;;;;;8.65;96.24;102361.56;5056273;28;20045;-35
2022/02/09 19:14:48;;;;;;;20.83;16.70;;;;;;;8.58;96.61;102347.13;5055540;28;20052;-35
2022/02/09 19:17:37;;;;;;;19.38;17.25;;;;;;;8.59;96.51;102343.41;5054161;28;20114;-35
2022/02/09 19:31:13;;;;;;;18.65;16.75;;;;;;;8.47;97.12;102332.22;5053159;28;20051;-35
2022/02/09 19:47:02;;;;;;;21.65;19.20;;;;;;;8.39;97.08;102320.66;4973661;28;20085;-34
2022/02/09 19:55:07;;;;;;;20.95;18.40;;;;;;;8.43;97.44;102325.50;4973970;28;20046;-35
2022/02/09 19:57:36;;;;;;;19.95;18.02;;;;;;;8.40;97.04;102325.88;4973419;28;20034;-35
2022/02/09 20:00:07;;;;;;;20.67;18.58;;;;;;;8.39;97.19;102324.19;4984926;28;20129;-35
2022/02/09 20:02:33;;;;;;;20.55;18.35;;;;;;;8.48;97.70;102339.28;4992990;28;20464;-35
2022/02/09 20:04:58;;;;;;;21.10;18.90;;;;;;;8.49;97.75;102332.03;4976592;28;20045;-35
2022/02/09 20:07:24;;;;;;;24.10;19.98;;;;;;;8.45;97.74;102322.63;4992581;28;20438;-35
2022/02/09 20:09:49;;;;;;;24.33;20.38;;;;;;;8.45;98.14;102334.25;4992519;28;20093;-36
2022/02/09 20:12:16;;;;;;;28.17;22.53;;;;;;;8.46;97.66;102327.00;4992596;28;20069;-36
2022/02/09 20:14:45;;;;;;;34.03;24.77;;;;;;;8.45;97.75;102328.88;4993040;28;20041;-35
2022/02/09 20:17:11;;;;;;;34.85;23.48;;;;;;;8.43;97.58;102321.97;4992715;28;20085;-35
2022/02/09 20:19:36;;;;;;;24.83;21.33;;;;;;;8.46;97.49;102325.16;4992688;28;20062;-35
2022/02/09 20:22:03;;;;;;;26.20;21.93;;;;;;;8.32;97.28;102303.50;4992226;28;20045;-35
2022/02/09 20:24:29;;;;;;;29.85;23.02;;;;;;;8.44;97.57;102329.91;5036584;28;20132;-35
2022/02/09 20:26:58;;;;;;;23.05;20.52;;;;;;;8.43;97.83;102328.19;5053611;28;20029;-35
2022/02/09 20:29:27;;;;;;;21.98;19.63;;;;;;;8.45;97.75;102336.97;5054614;28;20051;-35
2022/02/09 20:32:08;;;;;;;22.73;20.23;;;;;;;8.36;97.65;102316.47;5053763;28;20029;-35
2022/02/09 20:34:39;;;;;;;23.05;20.65;;;;;;;8.47;97.73;102332.22;5054330;28;20101;-35
2022/02/09 20:37:07;;;;;;;19.83;17.73;;;;;;;8.45;97.56;102325.34;5053968;28;20032;-35
2022/02/09 20:39:40;;;;;;;21.27;19.10;;;;;;;8.44;97.25;102332.59;5053597;28;20033;-36
2022/02/09 20:42:10;;;;;;;23.50;20.70;;;;;;;8.42;97.15;102328.38;5054127;28;20028;-35
2022/02/09 20:44:42;;;;;;;25.42;20.42;;;;;;;8.45;97.88;102330.72;5053530;28;20025;-35
2022/02/09 20:47:09;;;;;;;22.00;19.67;;;;;;;8.36;97.56;102312.91;5053784;28;20025;-35
2022/02/09 20:49:34;;;;;;;25.05;22.35;;;;;;;8.41;97.36;102321.31;5053695;28;20039;-35
2022/02/09 20:52:00;;;;;;;23.57;20.80;;;;;;;8.28;98.15;102300.31;5054487;28;20057;-35
2022/02/09 20:54:25;;;;;;;23.85;21.35;;;;;;;8.38;98.11;102311.72;5053165;28;20029;-35
2022/02/09 20:56:50;;;;;;;24.40;21.77;;;;;;;8.41;97.70;102322.16;5053403;28;20036;-35
2022/02/09 20:59:17;;;;;;;24.30;21.77;;;;;;;8.41;98.00;102332.09;5053662;28;20377;-35
2022/02/09 21:02:03;;;;;;;26.17;23.38;;;;;;;8.39;97.77;102318.78;5052925;28;20111;-35
2022/02/09 21:04:30;;;;;;;27.33;22.83;;;;;;;8.40;97.36;102312.41;5053763;28;20361;-35
2022/02/09 21:14:46;;;;;;;24.27;21.63;;;;;;;8.37;98.23;102312.75;5053455;28;20056;-35
2022/02/09 21:17:29;;;;;;;27.00;21.73;;;;;;;8.35;97.75;102309.38;5053054;28;20140;-36
2022/02/09 21:25:55;;;;;;;23.80;19.58;;;;;;;8.34;97.99;102299.59;5053183;28;20382;-35
2022/02/09 21:31:47;;;;;;;19.88;17.77;;;;;;;8.33;97.42;102295.22;5053046;28;20037;-35
2022/02/09 21:44:46;;;;;;;21.63;15.93;;;;;;;8.28;97.74;102276.06;5057287;28;20043;-35
2022/02/09 21:52:48;;;;;;;17.00;14.07;;;;;;;8.30;97.12;102276.75;5056888;28;20049;-36
2022/02/09 21:55:33;;;;;;;14.85;13.23;;;;;;;8.33;97.16;102276.34;5056446;28;20049;-35
2022/02/09 22:27:29;;;;;;;10.35;9.18;;;;;;;8.23;97.45;102246.13;5056125;28;20400;-36
2022/02/09 22:48:48;;;;;;;11.63;8.88;;;;;;;8.22;97.03;102229.13;5055555;28;20047;-36
2022/02/09 22:56:52;;;;;;;12.80;8.13;;;;;;;8.14;96.93;102213.00;5034217;28;20108;-36
2022/02/09 22:59:29;;;;;;;10.67;7.43;;;;;;;8.22;96.36;102220.19;5033578;28;20121;-35
2022/02/09 23:02:03;;;;;;;9.25;7.10;;;;;;;8.14;96.02;102204.09;5033194;28;20311;-35
2022/02/09 23:15:19;;;;;;;9.07;7.03;;;;;;;8.20;95.56;102201.53;5033460;28;20080;-36
2022/02/09 23:29:14;;;;;;;7.95;6.57;;;;;;;8.18;95.43;102187.38;5032784;28;20486;-35
